Terminal Aerodrome Forecast
Issued by NWS

Home | Current Version | Previous Version | Text Only | Print | Product List | Glossary On
Versions: 1 2 3 4 5 6 7 8 9 10 11 12 13 14
782
FTPA31 PHFO 260520
TAFHLI
TAF
PHLI 260520Z 2606/2706 07010KT P6SM VCSH SCT025 BKN040
      TEMPO 2606/2610 -SHRA FEW019 BKN025 BKN035=

USA.gov is the U.S. government's official web portal to all federal, state and local government web resources and services.